sensor_id;sensor_type;location;lat;lon;timestamp;temperature;humidity
70368;DHT22;57789;53.868;10.728;2024-01-30T00:02:22;4.20;99.90
70368;DHT22;57789;53.868;10.728;2024-01-30T00:04:48;4.00;99.90
70368;DHT22;57789;53.868;10.728;2024-01-30T00:07:14;4.00;99.90
70368;DHT22;57789;53.868;10.728;2024-01-30T00:09:39;4.10;99.90
70368;DHT22;57789;53.868;10.728;2024-01-30T00:12:06;4.00;99.90
70368;DHT22;57789;53.868;10.728;2024-01-30T00:14:31;4.10;99.90
70368;DHT22;57789;53.868;10.728;2024-01-30T00:16:57;3.90;99.90
70368;DHT22;57789;53.868;10.728;2024-01-30T00:19:23;3.90;99.90
70368;DHT22;57789;53.868;10.728;2024-01-30T00:21:48;3.70;99.90
70368;DHT22;57789;53.868;10.728;2024-01-30T00:24:14;3.70;99.90
70368;DHT22;57789;53.868;10.728;2024-01-30T00:26:40;3.80;99.90
70368;DHT22;57789;53.868;10.728;2024-01-30T00:29:05;3.90;99.90
70368;DHT22;57789;53.868;10.728;2024-01-30T00:31:31;4.00;99.90
70368;DHT22;57789;53.868;10.728;2024-01-30T00:33:57;4.00;99.90
70368;DHT22;57789;53.868;10.728;2024-01-30T00:36:22;4.10;99.90
70368;DHT22;57789;53.868;10.728;2024-01-30T00:38:48;4.10;99.90
70368;DHT22;57789;53.868;10.728;2024-01-30T00:41:14;4.10;99.90
70368;DHT22;57789;53.868;10.728;2024-01-30T00:43:40;4.10;99.90
70368;DHT22;57789;53.868;10.728;2024-01-30T00:46:05;4.00;99.90
70368;DHT22;57789;53.868;10.728;2024-01-30T00:48:31;4.00;99.90
70368;DHT22;57789;53.868;10.728;2024-01-30T00:50:57;3.90;99.90
70368;DHT22;57789;53.868;10.728;2024-01-30T00:53:23;3.70;99.90
70368;DHT22;57789;53.868;10.728;2024-01-30T00:55:48;3.50;99.90
70368;DHT22;57789;53.868;10.728;2024-01-30T00:58:14;3.40;99.90
70368;DHT22;57789;53.868;10.728;2024-01-30T01:00:40;3.70;99.90
70368;DHT22;57789;53.868;10.728;2024-01-30T01:03:06;3.60;99.90
70368;DHT22;57789;53.868;10.728;2024-01-30T01:05:32;3.60;99.90
70368;DHT22;57789;53.868;10.728;2024-01-30T01:07:57;3.70;99.90
70368;DHT22;57789;53.868;10.728;2024-01-30T01:10:23;3.90;99.90
70368;DHT22;57789;53.868;10.728;2024-01-30T01:12:49;4.20;99.90
70368;DHT22;57789;53.868;10.728;2024-01-30T01:15:15;4.10;99.90
70368;DHT22;57789;53.868;10.728;2024-01-30T01:17:41;4.00;99.90
70368;DHT22;57789;53.868;10.728;2024-01-30T01:20:07;3.90;99.90
70368;DHT22;57789;53.868;10.728;2024-01-30T01:22:34;3.90;99.90
70368;DHT22;57789;53.868;10.728;2024-01-30T01:25:00;4.00;99.90
70368;DHT22;57789;53.868;10.728;2024-01-30T01:27:26;4.00;99.90
70368;DHT22;57789;53.868;10.728;2024-01-30T01:29:53;3.90;99.90
70368;DHT22;57789;53.868;10.728;2024-01-30T01:32:18;3.90;99.90
70368;DHT22;57789;53.868;10.728;2024-01-30T01:34:44;4.00;99.90
70368;DHT22;57789;53.868;10.728;2024-01-30T01:37:10;4.10;99.90
70368;DHT22;57789;53.868;10.728;2024-01-30T01:39:36;4.10;99.90
70368;DHT22;57789;53.868;10.728;2024-01-30T01:42:01;4.10;99.90
70368;DHT22;57789;53.868;10.728;2024-01-30T01:44:27;4.00;99.90
70368;DHT22;57789;53.868;10.728;2024-01-30T01:46:54;4.10;99.90
70368;DHT22;57789;53.868;10.728;2024-01-30T01:49:20;4.20;99.90
70368;DHT22;57789;53.868;10.728;2024-01-30T01:51:47;4.30;99.90
70368;DHT22;57789;53.868;10.728;2024-01-30T01:54:14;4.30;99.90
70368;DHT22;57789;53.868;10.728;2024-01-30T01:56:42;4.30;99.90
70368;DHT22;57789;53.868;10.728;2024-01-30T01:59:08;4.20;99.90
70368;DHT22;57789;53.868;10.728;2024-01-30T02:01:36;4.10;99.90
70368;DHT22;57789;53.868;10.728;2024-01-30T02:04:02;4.10;99.90
70368;DHT22;57789;53.868;10.728;2024-01-30T02:06:28;4.10;99.90
70368;DHT22;57789;53.868;10.728;2024-01-30T02:08:54;4.10;99.90
70368;DHT22;57789;53.868;10.728;2024-01-30T02:11:21;4.10;99.90
70368;DHT22;57789;53.868;10.728;2024-01-30T02:13:47;4.10;99.90
70368;DHT22;57789;53.868;10.728;2024-01-30T02:16:13;4.10;99.90
70368;DHT22;57789;53.868;10.728;2024-01-30T02:18:38;4.10;99.90
70368;DHT22;57789;53.868;10.728;2024-01-30T02:21:08;4.00;99.90
70368;DHT22;57789;53.868;10.728;2024-01-30T02:23:37;4.00;99.90
70368;DHT22;57789;53.868;10.728;2024-01-30T02:26:03;4.00;99.90
70368;DHT22;57789;53.868;10.728;2024-01-30T02:28:29;4.00;99.90
70368;DHT22;57789;53.868;10.728;2024-01-30T02:30:54;4.00;99.90
70368;DHT22;57789;53.868;10.728;2024-01-30T02:33:20;4.00;99.90
70368;DHT22;57789;53.868;10.728;2024-01-30T02:35:47;4.00;99.90
70368;DHT22;57789;53.868;10.728;2024-01-30T02:38:13;4.10;99.90
70368;DHT22;57789;53.868;10.728;2024-01-30T02:40:39;4.20;99.90
70368;DHT22;57789;53.868;10.728;2024-01-30T02:43:05;4.20;99.90
70368;DHT22;57789;53.868;10.728;2024-01-30T02:45:30;4.20;99.90
70368;DHT22;57789;53.868;10.728;2024-01-30T02:47:56;4.30;99.90
70368;DHT22;57789;53.868;10.728;2024-01-30T02:50:21;4.30;99.90
70368;DHT22;57789;53.868;10.728;2024-01-30T02:52:47;4.20;99.90
70368;DHT22;57789;53.868;10.728;2024-01-30T02:55:13;4.10;99.90
70368;DHT22;57789;53.868;10.728;2024-01-30T02:57:39;4.00;99.90
70368;DHT22;57789;53.868;10.728;2024-01-30T03:00:06;4.00;99.90
70368;DHT22;57789;53.868;10.728;2024-01-30T03:02:33;4.00;99.90
70368;DHT22;57789;53.868;10.728;2024-01-30T03:05:00;4.00;99.90
70368;DHT22;57789;53.868;10.728;2024-01-30T03:07:25;4.10;99.90
70368;DHT22;57789;53.868;10.728;2024-01-30T03:09:51;4.20;99.90
70368;DHT22;57789;53.868;10.728;2024-01-30T03:12:17;4.20;99.90
70368;DHT22;57789;53.868;10.728;2024-01-30T03:14:42;4.20;99.90
70368;DHT22;57789;53.868;10.728;2024-01-30T03:17:08;4.10;99.90
70368;DHT22;57789;53.868;10.728;2024-01-30T03:19:34;4.10;99.90
70368;DHT22;57789;53.868;10.728;2024-01-30T03:21:59;4.10;99.90
70368;DHT22;57789;53.868;10.728;2024-01-30T03:24:25;4.10;99.90
70368;DHT22;57789;53.868;10.728;2024-01-30T03:26:51;4.00;99.90
70368;DHT22;57789;53.868;10.728;2024-01-30T03:29:17;4.00;99.90
70368;DHT22;57789;53.868;10.728;2024-01-30T03:31:42;3.90;99.90
70368;DHT22;57789;53.868;10.728;2024-01-30T03:34:08;3.90;99.90
70368;DHT22;57789;53.868;10.728;2024-01-30T03:36:34;3.90;99.90
70368;DHT22;57789;53.868;10.728;2024-01-30T03:39:00;3.90;99.90
70368;DHT22;57789;53.868;10.728;2024-01-30T03:41:26;3.80;99.90
70368;DHT22;57789;53.868;10.728;2024-01-30T03:43:52;3.70;99.90
70368;DHT22;57789;53.868;10.728;2024-01-30T03:46:18;3.70;99.90
70368;DHT22;57789;53.868;10.728;2024-01-30T03:48:44;3.80;99.90
70368;DHT22;57789;53.868;10.728;2024-01-30T03:51:10;3.70;99.90
70368;DHT22;57789;53.868;10.728;2024-01-30T03:53:45;3.70;99.90
70368;DHT22;57789;53.868;10.728;2024-01-30T03:56:13;3.70;99.90
70368;DHT22;57789;53.868;10.728;2024-01-30T03:58:40;3.80;99.90
70368;DHT22;57789;53.868;10.728;2024-01-30T04:01:05;3.90;99.90
70368;DHT22;57789;53.868;10.728;2024-01-30T04:03:31;3.80;99.90
70368;DHT22;57789;53.868;10.728;2024-01-30T04:05:57;3.70;99.90
70368;DHT22;57789;53.868;10.728;2024-01-30T04:08:22;3.60;99.90
70368;DHT22;57789;53.868;10.728;2024-01-30T04:10:48;3.60;99.90
70368;DHT22;57789;53.868;10.728;2024-01-30T04:13:14;3.60;99.90
70368;DHT22;57789;53.868;10.728;2024-01-30T04:15:40;3.60;99.90
70368;DHT22;57789;53.868;10.728;2024-01-30T04:18:05;3.60;99.90
70368;DHT22;57789;53.868;10.728;2024-01-30T04:20:31;3.60;99.90
70368;DHT22;57789;53.868;10.728;2024-01-30T04:22:57;3.60;99.90
70368;DHT22;57789;53.868;10.728;2024-01-30T04:25:22;3.60;99.90
70368;DHT22;57789;53.868;10.728;2024-01-30T04:27:48;3.70;99.90
70368;DHT22;57789;53.868;10.728;2024-01-30T04:30:14;3.70;99.90
70368;DHT22;57789;53.868;10.728;2024-01-30T04:32:40;3.70;99.90
70368;DHT22;57789;53.868;10.728;2024-01-30T04:35:06;3.70;99.90
70368;DHT22;57789;53.868;10.728;2024-01-30T04:37:32;3.70;99.90
70368;DHT22;57789;53.868;10.728;2024-01-30T04:39:57;3.70;99.90
70368;DHT22;57789;53.868;10.728;2024-01-30T04:42:23;3.70;99.90
70368;DHT22;57789;53.868;10.728;2024-01-30T04:44:49;3.70;99.90
70368;DHT22;57789;53.868;10.728;2024-01-30T04:47:15;3.70;99.90
70368;DHT22;57789;53.868;10.728;2024-01-30T04:49:41;3.70;99.90
70368;DHT22;57789;53.868;10.728;2024-01-30T04:52:07;3.70;99.90
70368;DHT22;57789;53.868;10.728;2024-01-30T04:54:33;3.70;99.90
70368;DHT22;57789;53.868;10.728;2024-01-30T04:57:00;3.70;99.90
70368;DHT22;57789;53.868;10.728;2024-01-30T04:59:25;3.70;99.90
70368;DHT22;57789;53.868;10.728;2024-01-30T05:01:51;3.70;99.90
70368;DHT22;57789;53.868;10.728;2024-01-30T05:04:17;3.60;99.90
70368;DHT22;57789;53.868;10.728;2024-01-30T05:06:43;3.70;99.90
70368;DHT22;57789;53.868;10.728;2024-01-30T05:09:09;3.60;99.90
70368;DHT22;57789;53.868;10.728;2024-01-30T05:11:39;3.60;99.90
70368;DHT22;57789;53.868;10.728;2024-01-30T05:14:05;3.50;99.90
70368;DHT22;57789;53.868;10.728;2024-01-30T05:16:31;3.50;99.90
70368;DHT22;57789;53.868;10.728;2024-01-30T05:18:57;3.50;99.90
70368;DHT22;57789;53.868;10.728;2024-01-30T05:21:23;3.50;99.90
70368;DHT22;57789;53.868;10.728;2024-01-30T05:23:49;3.50;99.90
70368;DHT22;57789;53.868;10.728;2024-01-30T05:26:15;3.50;99.90
70368;DHT22;57789;53.868;10.728;2024-01-30T05:28:40;3.50;99.90
70368;DHT22;57789;53.868;10.728;2024-01-30T05:31:06;3.40;99.90
70368;DHT22;57789;53.868;10.728;2024-01-30T05:33:32;3.40;99.90
70368;DHT22;57789;53.868;10.728;2024-01-30T05:35:57;3.40;99.90
70368;DHT22;57789;53.868;10.728;2024-01-30T05:38:23;3.50;99.90
70368;DHT22;57789;53.868;10.728;2024-01-30T05:40:48;3.50;99.90
70368;DHT22;57789;53.868;10.728;2024-01-30T05:43:14;3.60;99.90
70368;DHT22;57789;53.868;10.728;2024-01-30T05:45:40;3.60;99.90
70368;DHT22;57789;53.868;10.728;2024-01-30T05:48:06;3.50;99.90
70368;DHT22;57789;53.868;10.728;2024-01-30T05:50:32;3.60;99.90
70368;DHT22;57789;53.868;10.728;2024-01-30T05:52:57;3.60;99.90
70368;DHT22;57789;53.868;10.728;2024-01-30T05:55:23;3.60;99.90
70368;DHT22;57789;53.868;10.728;2024-01-30T05:57:49;3.60;99.90
70368;DHT22;57789;53.868;10.728;2024-01-30T06:00:15;3.60;99.90
70368;DHT22;57789;53.868;10.728;2024-01-30T06:02:41;3.70;99.90
70368;DHT22;57789;53.868;10.728;2024-01-30T06:05:07;3.70;99.90
70368;DHT22;57789;53.868;10.728;2024-01-30T06:07:32;3.70;99.90
70368;DHT22;57789;53.868;10.728;2024-01-30T06:09:58;3.60;99.90
70368;DHT22;57789;53.868;10.728;2024-01-30T06:12:27;3.60;99.90
70368;DHT22;57789;53.868;10.728;2024-01-30T06:14:53;3.50;99.90
70368;DHT22;57789;53.868;10.728;2024-01-30T06:17:22;3.50;99.90
70368;DHT22;57789;53.868;10.728;2024-01-30T06:19:48;3.40;99.90
70368;DHT22;57789;53.868;10.728;2024-01-30T06:22:14;3.40;99.90
70368;DHT22;57789;53.868;10.728;2024-01-30T06:24:40;3.40;99.90
70368;DHT22;57789;53.868;10.728;2024-01-30T06:27:06;3.40;99.90
70368;DHT22;57789;53.868;10.728;2024-01-30T06:29:31;3.50;99.90
70368;DHT22;57789;53.868;10.728;2024-01-30T06:31:57;3.60;99.90
70368;DHT22;57789;53.868;10.728;2024-01-30T06:34:23;3.60;99.90
70368;DHT22;57789;53.868;10.728;2024-01-30T06:36:49;3.60;99.90
70368;DHT22;57789;53.868;10.728;2024-01-30T06:39:15;3.60;99.90
70368;DHT22;57789;53.868;10.728;2024-01-30T06:41:40;3.60;99.90
70368;DHT22;57789;53.868;10.728;2024-01-30T06:44:06;3.60;99.90
70368;DHT22;57789;53.868;10.728;2024-01-30T06:46:33;3.70;99.90
70368;DHT22;57789;53.868;10.728;2024-01-30T06:48:59;3.70;99.90
70368;DHT22;57789;53.868;10.728;2024-01-30T06:51:25;3.90;99.90
70368;DHT22;57789;53.868;10.728;2024-01-30T06:53:51;3.80;99.90
70368;DHT22;57789;53.868;10.728;2024-01-30T06:56:16;3.90;99.90
70368;DHT22;57789;53.868;10.728;2024-01-30T06:58:47;3.90;99.90
70368;DHT22;57789;53.868;10.728;2024-01-30T07:01:13;3.80;99.90
70368;DHT22;57789;53.868;10.728;2024-01-30T07:03:39;3.80;99.90
70368;DHT22;57789;53.868;10.728;2024-01-30T07:06:05;3.80;99.90
70368;DHT22;57789;53.868;10.728;2024-01-30T07:08:30;3.80;99.90
70368;DHT22;57789;53.868;10.728;2024-01-30T07:10:56;3.90;99.90
70368;DHT22;57789;53.868;10.728;2024-01-30T07:13:22;4.00;99.90
70368;DHT22;57789;53.868;10.728;2024-01-30T07:15:47;3.90;99.90
70368;DHT22;57789;53.868;10.728;2024-01-30T07:18:13;4.00;99.90
70368;DHT22;57789;53.868;10.728;2024-01-30T07:20:39;4.10;99.90
70368;DHT22;57789;53.868;10.728;2024-01-30T07:23:12;4.10;99.90
70368;DHT22;57789;53.868;10.728;2024-01-30T07:25:40;4.10;99.90
70368;DHT22;57789;53.868;10.728;2024-01-30T07:28:07;4.10;99.90
70368;DHT22;57789;53.868;10.728;2024-01-30T07:30:35;4.10;99.90
70368;DHT22;57789;53.868;10.728;2024-01-30T07:33:01;4.20;99.90
70368;DHT22;57789;53.868;10.728;2024-01-30T07:35:26;4.20;99.90
70368;DHT22;57789;53.868;10.728;2024-01-30T07:37:52;4.20;99.90
70368;DHT22;57789;53.868;10.728;2024-01-30T07:40:18;4.30;99.90
70368;DHT22;57789;53.868;10.728;2024-01-30T07:42:43;4.30;99.90
70368;DHT22;57789;53.868;10.728;2024-01-30T07:45:09;4.30;99.90
70368;DHT22;57789;53.868;10.728;2024-01-30T07:47:35;4.40;99.90
70368;DHT22;57789;53.868;10.728;2024-01-30T07:50:00;4.40;99.90
70368;DHT22;57789;53.868;10.728;2024-01-30T07:52:26;4.40;99.90
70368;DHT22;57789;53.868;10.728;2024-01-30T07:54:53;4.50;99.90
70368;DHT22;57789;53.868;10.728;2024-01-30T07:57:20;4.50;99.90
70368;DHT22;57789;53.868;10.728;2024-01-30T07:59:46;4.50;99.90
70368;DHT22;57789;53.868;10.728;2024-01-30T08:02:12;4.50;99.90
70368;DHT22;57789;53.868;10.728;2024-01-30T08:04:38;4.50;99.90
70368;DHT22;57789;53.868;10.728;2024-01-30T08:07:04;4.60;99.90
70368;DHT22;57789;53.868;10.728;2024-01-30T08:09:29;4.60;99.90
70368;DHT22;57789;53.868;10.728;2024-01-30T08:11:55;4.60;99.90
70368;DHT22;57789;53.868;10.728;2024-01-30T08:14:21;4.70;99.90
70368;DHT22;57789;53.868;10.728;2024-01-30T08:16:46;4.70;99.90
70368;DHT22;57789;53.868;10.728;2024-01-30T08:19:12;4.80;99.90
70368;DHT22;57789;53.868;10.728;2024-01-30T08:21:37;4.80;99.90
70368;DHT22;57789;53.868;10.728;2024-01-30T08:24:04;4.80;99.90
70368;DHT22;57789;53.868;10.728;2024-01-30T08:26:30;4.80;99.90
70368;DHT22;57789;53.868;10.728;2024-01-30T08:28:56;4.90;99.90
70368;DHT22;57789;53.868;10.728;2024-01-30T08:31:22;4.90;99.90
70368;DHT22;57789;53.868;10.728;2024-01-30T08:33:47;4.90;99.90
70368;DHT22;57789;53.868;10.728;2024-01-30T08:36:15;4.90;99.90
70368;DHT22;57789;53.868;10.728;2024-01-30T08:38:42;5.00;99.90
70368;DHT22;57789;53.868;10.728;2024-01-30T08:41:09;5.00;99.90
70368;DHT22;57789;53.868;10.728;2024-01-30T08:43:34;5.10;99.90
70368;DHT22;57789;53.868;10.728;2024-01-30T08:46:00;5.10;99.90
70368;DHT22;57789;53.868;10.728;2024-01-30T08:48:26;5.10;99.90
70368;DHT22;57789;53.868;10.728;2024-01-30T08:50:52;5.20;99.90
70368;DHT22;57789;53.868;10.728;2024-01-30T08:53:18;5.20;99.90
70368;DHT22;57789;53.868;10.728;2024-01-30T08:55:44;5.30;99.90
70368;DHT22;57789;53.868;10.728;2024-01-30T08:58:10;5.30;99.90
70368;DHT22;57789;53.868;10.728;2024-01-30T09:00:36;5.30;99.90
70368;DHT22;57789;53.868;10.728;2024-01-30T09:03:02;5.30;99.90
70368;DHT22;57789;53.868;10.728;2024-01-30T09:05:28;5.40;99.90
70368;DHT22;57789;53.868;10.728;2024-01-30T09:07:54;5.40;99.90
70368;DHT22;57789;53.868;10.728;2024-01-30T09:10:20;5.50;99.90
70368;DHT22;57789;53.868;10.728;2024-01-30T09:12:46;5.50;99.90
70368;DHT22;57789;53.868;10.728;2024-01-30T09:15:12;5.60;99.90
70368;DHT22;57789;53.868;10.728;2024-01-30T09:17:38;5.60;99.90
70368;DHT22;57789;53.868;10.728;2024-01-30T09:20:04;5.70;99.90
70368;DHT22;57789;53.868;10.728;2024-01-30T09:22:32;5.80;99.90
70368;DHT22;57789;53.868;10.728;2024-01-30T09:24:59;6.10;99.90
70368;DHT22;57789;53.868;10.728;2024-01-30T09:27:25;6.20;99.90
70368;DHT22;57789;53.868;10.728;2024-01-30T09:29:50;6.40;99.90
70368;DHT22;57789;53.868;10.728;2024-01-30T09:32:16;6.50;99.90
70368;DHT22;57789;53.868;10.728;2024-01-30T09:34:43;6.70;99.90
70368;DHT22;57789;53.868;10.728;2024-01-30T09:37:08;6.80;99.90
70368;DHT22;57789;53.868;10.728;2024-01-30T09:39:34;7.00;99.90
70368;DHT22;57789;53.868;10.728;2024-01-30T09:42:05;7.10;99.90
70368;DHT22;57789;53.868;10.728;2024-01-30T09:44:35;7.10;99.90
70368;DHT22;57789;53.868;10.728;2024-01-30T09:47:03;7.20;99.90
70368;DHT22;57789;53.868;10.728;2024-01-30T09:49:34;7.30;99.90
70368;DHT22;57789;53.868;10.728;2024-01-30T09:52:02;7.30;99.90
70368;DHT22;57789;53.868;10.728;2024-01-30T09:54:30;7.40;99.90
70368;DHT22;57789;53.868;10.728;2024-01-30T09:56:57;7.50;99.90
70368;DHT22;57789;53.868;10.728;2024-01-30T09:59:23;7.60;99.90
70368;DHT22;57789;53.868;10.728;2024-01-30T10:01:50;7.60;99.90
70368;DHT22;57789;53.868;10.728;2024-01-30T10:04:15;7.70;99.90
70368;DHT22;57789;53.868;10.728;2024-01-30T10:06:42;7.90;99.90
70368;DHT22;57789;53.868;10.728;2024-01-30T10:09:07;7.90;99.90
70368;DHT22;57789;53.868;10.728;2024-01-30T10:11:35;7.90;99.90
70368;DHT22;57789;53.868;10.728;2024-01-30T10:14:01;8.10;99.90
70368;DHT22;57789;53.868;10.728;2024-01-30T10:16:27;8.00;99.90
70368;DHT22;57789;53.868;10.728;2024-01-30T10:18:52;8.00;99.90
70368;DHT22;57789;53.868;10.728;2024-01-30T10:21:18;7.90;99.90
70368;DHT22;57789;53.868;10.728;2024-01-30T10:23:44;7.80;99.90
70368;DHT22;57789;53.868;10.728;2024-01-30T10:26:10;7.80;99.90
70368;DHT22;57789;53.868;10.728;2024-01-30T10:28:36;7.80;99.90
70368;DHT22;57789;53.868;10.728;2024-01-30T10:31:02;7.90;99.90
70368;DHT22;57789;53.868;10.728;2024-01-30T10:33:31;8.00;99.90
70368;DHT22;57789;53.868;10.728;2024-01-30T10:36:01;8.00;99.90
70368;DHT22;57789;53.868;10.728;2024-01-30T10:38:31;8.20;99.90
70368;DHT22;57789;53.868;10.728;2024-01-30T10:40:58;8.30;99.90
70368;DHT22;57789;53.868;10.728;2024-01-30T10:43:32;8.40;99.90
70368;DHT22;57789;53.868;10.728;2024-01-30T10:46:10;8.50;99.90
70368;DHT22;57789;53.868;10.728;2024-01-30T10:48:42;8.50;99.90
70368;DHT22;57789;53.868;10.728;2024-01-30T10:51:10;8.60;99.90
70368;DHT22;57789;53.868;10.728;2024-01-30T10:53:36;8.60;99.90
70368;DHT22;57789;53.868;10.728;2024-01-30T10:56:03;8.60;99.90
70368;DHT22;57789;53.868;10.728;2024-01-30T10:58:29;8.70;99.90
70368;DHT22;57789;53.868;10.728;2024-01-30T11:00:56;8.70;99.90
70368;DHT22;57789;53.868;10.728;2024-01-30T11:03:22;8.80;99.90
70368;DHT22;57789;53.868;10.728;2024-01-30T11:05:58;8.90;99.90
70368;DHT22;57789;53.868;10.728;2024-01-30T11:08:27;9.10;99.90
70368;DHT22;57789;53.868;10.728;2024-01-30T11:10:57;9.20;99.90
70368;DHT22;57789;53.868;10.728;2024-01-30T11:13:31;9.20;99.90
70368;DHT22;57789;53.868;10.728;2024-01-30T11:16:03;9.20;99.90
70368;DHT22;57789;53.868;10.728;2024-01-30T11:18:31;9.20;99.90
70368;DHT22;57789;53.868;10.728;2024-01-30T11:21:00;9.30;99.90
70368;DHT22;57789;53.868;10.728;2024-01-30T11:23:39;9.30;99.90
70368;DHT22;57789;53.868;10.728;2024-01-30T11:26:07;9.40;99.90
70368;DHT22;57789;53.868;10.728;2024-01-30T11:28:38;9.40;99.90
70368;DHT22;57789;53.868;10.728;2024-01-30T11:31:05;9.40;99.90
70368;DHT22;57789;53.868;10.728;2024-01-30T11:33:32;9.40;99.90
70368;DHT22;57789;53.868;10.728;2024-01-30T11:36:00;9.50;99.90
70368;DHT22;57789;53.868;10.728;2024-01-30T11:38:27;9.50;99.90
70368;DHT22;57789;53.868;10.728;2024-01-30T11:40:54;9.50;99.90
70368;DHT22;57789;53.868;10.728;2024-01-30T11:43:23;9.50;99.90
70368;DHT22;57789;53.868;10.728;2024-01-30T11:45:49;9.50;99.90
70368;DHT22;57789;53.868;10.728;2024-01-30T11:48:17;9.60;99.90
70368;DHT22;57789;53.868;10.728;2024-01-30T11:50:43;9.50;99.90
70368;DHT22;57789;53.868;10.728;2024-01-30T11:53:11;9.40;99.90
70368;DHT22;57789;53.868;10.728;2024-01-30T11:55:37;9.30;99.90
70368;DHT22;57789;53.868;10.728;2024-01-30T11:58:03;9.30;99.90
70368;DHT22;57789;53.868;10.728;2024-01-30T12:00:29;9.20;99.90
70368;DHT22;57789;53.868;10.728;2024-01-30T12:02:56;9.20;99.90
70368;DHT22;57789;53.868;10.728;2024-01-30T12:05:23;9.20;99.90
70368;DHT22;57789;53.868;10.728;2024-01-30T12:07:49;9.20;99.90
70368;DHT22;57789;53.868;10.728;2024-01-30T12:10:15;9.10;99.90
70368;DHT22;57789;53.868;10.728;2024-01-30T12:12:43;9.10;99.90
70368;DHT22;57789;53.868;10.728;2024-01-30T12:15:10;9.00;99.90
70368;DHT22;57789;53.868;10.728;2024-01-30T12:17:36;8.90;99.90
70368;DHT22;57789;53.868;10.728;2024-01-30T12:22:46;8.90;99.90
70368;DHT22;57789;53.868;10.728;2024-01-30T12:25:14;8.90;99.90
70368;DHT22;57789;53.868;10.728;2024-01-30T12:27:42;9.00;99.90
70368;DHT22;57789;53.868;10.728;2024-01-30T12:30:09;9.00;99.90
70368;DHT22;57789;53.868;10.728;2024-01-30T12:32:45;9.00;99.90
70368;DHT22;57789;53.868;10.728;2024-01-30T12:35:12;9.00;99.90
70368;DHT22;57789;53.868;10.728;2024-01-30T12:37:39;9.00;99.90
70368;DHT22;57789;53.868;10.728;2024-01-30T12:40:05;9.00;99.90
70368;DHT22;57789;53.868;10.728;2024-01-30T12:42:31;9.00;99.90
70368;DHT22;57789;53.868;10.728;2024-01-30T12:44:58;9.10;99.90
70368;DHT22;57789;53.868;10.728;2024-01-30T12:47:27;9.10;99.90
70368;DHT22;57789;53.868;10.728;2024-01-30T12:49:52;9.00;99.90
70368;DHT22;57789;53.868;10.728;2024-01-30T12:52:21;9.00;99.90
70368;DHT22;57789;53.868;10.728;2024-01-30T12:54:48;9.00;99.90
70368;DHT22;57789;53.868;10.728;2024-01-30T12:57:14;9.00;99.90
70368;DHT22;57789;53.868;10.728;2024-01-30T12:59:40;9.10;99.90
70368;DHT22;57789;53.868;10.728;2024-01-30T13:02:06;9.10;99.90
70368;DHT22;57789;53.868;10.728;2024-01-30T13:04:32;9.10;99.90
70368;DHT22;57789;53.868;10.728;2024-01-30T13:06:58;9.10;99.90
70368;DHT22;57789;53.868;10.728;2024-01-30T13:09:24;9.00;99.90
70368;DHT22;57789;53.868;10.728;2024-01-30T13:11:50;9.10;99.90
70368;DHT22;57789;53.868;10.728;2024-01-30T13:14:16;9.00;99.90
70368;DHT22;57789;53.868;10.728;2024-01-30T13:16:42;9.10;99.90
70368;DHT22;57789;53.868;10.728;2024-01-30T13:19:08;9.10;99.90
70368;DHT22;57789;53.868;10.728;2024-01-30T13:21:33;9.10;99.90
70368;DHT22;57789;53.868;10.728;2024-01-30T13:23:59;9.10;99.90
70368;DHT22;57789;53.868;10.728;2024-01-30T13:26:25;9.10;99.90
70368;DHT22;57789;53.868;10.728;2024-01-30T13:28:51;9.20;99.90
70368;DHT22;57789;53.868;10.728;2024-01-30T13:31:17;9.20;99.90
70368;DHT22;57789;53.868;10.728;2024-01-30T13:33:44;9.30;99.90
70368;DHT22;57789;53.868;10.728;2024-01-30T13:36:11;9.30;99.90
70368;DHT22;57789;53.868;10.728;2024-01-30T13:38:37;9.30;99.90
70368;DHT22;57789;53.868;10.728;2024-01-30T13:41:03;9.30;99.90
70368;DHT22;57789;53.868;10.728;2024-01-30T13:43:29;9.30;99.90
70368;DHT22;57789;53.868;10.728;2024-01-30T13:45:54;9.30;99.90
70368;DHT22;57789;53.868;10.728;2024-01-30T13:48:20;9.30;99.90
70368;DHT22;57789;53.868;10.728;2024-01-30T13:50:47;9.30;99.90
70368;DHT22;57789;53.868;10.728;2024-01-30T13:53:13;9.40;99.90
70368;DHT22;57789;53.868;10.728;2024-01-30T13:55:40;9.40;99.90
70368;DHT22;57789;53.868;10.728;2024-01-30T13:58:06;9.40;99.90
70368;DHT22;57789;53.868;10.728;2024-01-30T14:00:33;9.30;99.90
70368;DHT22;57789;53.868;10.728;2024-01-30T14:02:59;9.40;99.90
70368;DHT22;57789;53.868;10.728;2024-01-30T14:05:25;9.40;99.90
70368;DHT22;57789;53.868;10.728;2024-01-30T14:07:52;9.40;99.90
70368;DHT22;57789;53.868;10.728;2024-01-30T14:10:17;9.50;99.90
70368;DHT22;57789;53.868;10.728;2024-01-30T14:12:44;9.40;99.90
70368;DHT22;57789;53.868;10.728;2024-01-30T14:15:10;9.50;99.90
70368;DHT22;57789;53.868;10.728;2024-01-30T14:17:36;9.50;99.90
70368;DHT22;57789;53.868;10.728;2024-01-30T14:20:03;9.60;99.90
70368;DHT22;57789;53.868;10.728;2024-01-30T14:22:32;9.60;99.90
70368;DHT22;57789;53.868;10.728;2024-01-30T14:24:59;9.60;99.90
70368;DHT22;57789;53.868;10.728;2024-01-30T14:27:24;9.60;99.90
70368;DHT22;57789;53.868;10.728;2024-01-30T14:29:50;9.70;99.90
70368;DHT22;57789;53.868;10.728;2024-01-30T14:32:16;9.70;99.90
70368;DHT22;57789;53.868;10.728;2024-01-30T14:34:42;9.70;99.90
70368;DHT22;57789;53.868;10.728;2024-01-30T14:37:07;9.70;99.90
70368;DHT22;57789;53.868;10.728;2024-01-30T14:39:33;9.70;99.90
70368;DHT22;57789;53.868;10.728;2024-01-30T14:41:59;9.80;99.90
70368;DHT22;57789;53.868;10.728;2024-01-30T14:44:25;9.90;99.90
70368;DHT22;57789;53.868;10.728;2024-01-30T14:46:51;9.90;99.90
70368;DHT22;57789;53.868;10.728;2024-01-30T14:49:17;9.90;99.90
70368;DHT22;57789;53.868;10.728;2024-01-30T14:51:43;9.90;99.90
70368;DHT22;57789;53.868;10.728;2024-01-30T14:54:08;9.90;99.90
70368;DHT22;57789;53.868;10.728;2024-01-30T14:56:34;10.00;99.90
70368;DHT22;57789;53.868;10.728;2024-01-30T14:59:00;9.90;99.90
70368;DHT22;57789;53.868;10.728;2024-01-30T15:01:26;10.00;99.90
70368;DHT22;57789;53.868;10.728;2024-01-30T15:03:52;10.00;99.90
70368;DHT22;57789;53.868;10.728;2024-01-30T15:06:20;10.00;99.90
70368;DHT22;57789;53.868;10.728;2024-01-30T15:08:48;10.00;99.90
70368;DHT22;57789;53.868;10.728;2024-01-30T15:11:14;9.90;99.90
70368;DHT22;57789;53.868;10.728;2024-01-30T15:13:39;9.90;99.90
70368;DHT22;57789;53.868;10.728;2024-01-30T15:16:05;9.90;99.90
70368;DHT22;57789;53.868;10.728;2024-01-30T15:18:31;9.90;99.90
70368;DHT22;57789;53.868;10.728;2024-01-30T15:20:56;9.90;99.90
70368;DHT22;57789;53.868;10.728;2024-01-30T15:23:22;9.80;99.90
70368;DHT22;57789;53.868;10.728;2024-01-30T15:25:48;9.90;99.90
70368;DHT22;57789;53.868;10.728;2024-01-30T15:28:13;9.80;99.90